createdAt,value
2017-11-17T00:00:19.429Z,101042.25
2017-11-17T00:02:46.899Z,101028.23
2017-11-17T00:05:14.490Z,101022.58
2017-11-17T00:07:42.157Z,101024.02
2017-11-17T00:10:09.654Z,101021.27
2017-11-17T00:12:37.344Z,101029.74
2017-11-17T00:15:04.837Z,101030.65
2017-11-17T00:17:32.336Z,101025.11
2017-11-17T00:19:59.857Z,101027.52
2017-11-17T00:22:27.871Z,101024.88
2017-11-17T00:24:55.445Z,101019.95
2017-11-17T00:27:22.892Z,101018.22
2017-11-17T00:29:50.524Z,101013.35
2017-11-17T00:32:17.986Z,101014.26
2017-11-17T00:34:45.970Z,101010.54
2017-11-17T00:37:13.671Z,101014.82
2017-11-17T00:39:41.152Z,101024.81
2017-11-17T00:42:08.846Z,101026.01
2017-11-17T00:44:36.319Z,101028.99
2017-11-17T00:47:13.388Z,101024.58
2017-11-17T00:49:40.953Z,101027.16
2017-11-17T00:52:08.411Z,101032.84
2017-11-17T00:54:35.977Z,101034.61
2017-11-17T00:59:56.135Z,101035.14
2017-11-17T01:02:23.621Z,101033.75
2017-11-17T01:04:51.104Z,101032.84
2017-11-17T01:07:18.643Z,101026.36
2017-11-17T01:09:46.116Z,101034.77
2017-11-17T01:12:13.635Z,101030.67
2017-11-17T01:14:41.301Z,101034.63
2017-11-17T01:17:08.898Z,101037.27
2017-11-17T01:19:36.528Z,101037.70
2017-11-17T01:22:04.086Z,101028.34
2017-11-17T01:24:31.562Z,101028.02
2017-11-17T01:26:59.140Z,101028.57
2017-11-17T01:29:26.677Z,101026.87
2017-11-17T01:31:54.125Z,101034.07
2017-11-17T01:34:22.210Z,101028.33
2017-11-17T01:36:49.750Z,101023.41
2017-11-17T01:39:17.311Z,101032.15
2017-11-17T01:41:44.830Z,101032.03
2017-11-17T01:44:12.316Z,101031.91
2017-11-17T01:46:39.843Z,101029.10
2017-11-17T01:49:07.331Z,101026.46
2017-11-17T01:51:35.733Z,101030.06
2017-11-17T01:54:03.220Z,101028.19
2017-11-17T01:56:30.676Z,101021.46
2017-11-17T01:58:58.164Z,101020.64
2017-11-17T02:01:25.640Z,101016.70
2017-11-17T02:03:53.162Z,101019.34
2017-11-17T02:06:20.661Z,101017.73
2017-11-17T02:08:48.119Z,101024.23
2017-11-17T02:11:15.688Z,101021.30
2017-11-17T02:13:43.229Z,101026.52
2017-11-17T02:16:10.727Z,101029.50
2017-11-17T02:18:38.284Z,101031.02
2017-11-17T02:21:05.907Z,101033.41
2017-11-17T02:23:33.406Z,101032.20
2017-11-17T02:26:00.990Z,101028.56
2017-11-17T02:28:28.559Z,101028.97
2017-11-17T02:30:56.121Z,101029.69
2017-11-17T02:33:23.603Z,101037.84
2017-11-17T02:35:51.091Z,101040.36
2017-11-17T02:38:19.601Z,101031.06
2017-11-17T02:40:47.367Z,101033.51
2017-11-17T02:43:14.875Z,101030.64
2017-11-17T02:45:42.345Z,101038.56
2017-11-17T02:48:09.905Z,101034.55
2017-11-17T02:50:37.440Z,101031.98
2017-11-17T02:53:05.207Z,101033.61
2017-11-17T02:55:32.734Z,101036.30
2017-11-17T02:58:00.222Z,101032.41
2017-11-17T03:00:28.735Z,101035.81
2017-11-17T03:02:56.327Z,101035.01
2017-11-17T03:05:23.823Z,101033.13
2017-11-17T03:07:51.345Z,101035.06
2017-11-17T03:10:19.051Z,101029.11
2017-11-17T03:12:46.696Z,101037.03
2017-11-17T03:15:14.177Z,101035.83
2017-11-17T03:17:42.048Z,101043.50
2017-11-17T03:20:09.694Z,101043.91
2017-11-17T03:22:37.176Z,101049.86
2017-11-17T03:25:04.660Z,101048.02
2017-11-17T03:27:32.223Z,101042.41
2017-11-17T03:29:59.847Z,101049.38
2017-11-17T03:32:27.597Z,101049.49
2017-11-17T03:34:55.183Z,101050.02
2017-11-17T03:37:22.733Z,101049.11
2017-11-17T03:39:50.204Z,101045.39
2017-11-17T03:42:17.739Z,101046.70
2017-11-17T03:44:45.238Z,101049.42
2017-11-17T03:47:13.003Z,101052.59
2017-11-17T03:49:40.563Z,101058.83
2017-11-17T03:52:08.082Z,101057.87
2017-11-17T03:54:35.560Z,101055.94
2017-11-17T03:57:03.186Z,101058.78
2017-11-17T03:59:30.720Z,101054.20
2017-11-17T04:01:58.228Z,101059.25
2017-11-17T04:04:25.763Z,101054.76
2017-11-17T04:06:53.331Z,101060.69
2017-11-17T04:09:20.877Z,101062.48
2017-11-17T04:11:48.366Z,101069.28
2017-11-17T04:14:15.974Z,101067.96
2017-11-17T04:16:43.461Z,101060.98
2017-11-17T04:19:11.169Z,101067.23
2017-11-17T04:21:38.687Z,101067.53
2017-11-17T04:24:06.349Z,101065.80
2017-11-17T04:26:33.897Z,101072.22
2017-11-17T04:29:01.373Z,101069.40
2017-11-17T04:31:29.149Z,101073.53
2017-11-17T04:33:56.593Z,101071.30
2017-11-17T04:36:25.163Z,101073.82
2017-11-17T04:38:52.808Z,101073.70
2017-11-17T04:41:20.325Z,101072.39
2017-11-17T04:43:47.933Z,101072.67
2017-11-17T04:46:15.477Z,101078.69
2017-11-17T04:48:42.929Z,101076.58
2017-11-17T04:51:10.595Z,101081.09
2017-11-17T04:53:38.065Z,101078.63
2017-11-17T04:56:06.910Z,101081.44
2017-11-17T04:58:34.419Z,101081.31
2017-11-17T05:01:01.919Z,101088.37
2017-11-17T05:03:29.400Z,101091.66
2017-11-17T05:05:56.936Z,101089.41
2017-11-17T05:08:24.544Z,101090.23
2017-11-17T05:10:52.103Z,101097.00
2017-11-17T05:13:20.121Z,101094.63
2017-11-17T05:15:47.664Z,101090.05
2017-11-17T05:18:20.201Z,101094.00
2017-11-17T05:23:36.022Z,101098.58
2017-11-17T05:26:03.748Z,101098.75
2017-11-17T05:28:31.249Z,101099.78
2017-11-17T05:30:58.718Z,101104.85
2017-11-17T05:33:26.343Z,101105.18
2017-11-17T05:35:53.939Z,101098.75
2017-11-17T05:38:21.443Z,101097.96
2017-11-17T05:40:49.036Z,101103.12
2017-11-17T05:43:16.607Z,101104.56
2017-11-17T05:45:44.155Z,101108.98
2017-11-17T05:48:11.624Z,101110.39
2017-11-17T05:50:39.088Z,101108.45
2017-11-17T05:53:06.641Z,101107.36
2017-11-17T05:55:34.092Z,101108.56
2017-11-17T05:58:01.672Z,101109.23
2017-11-17T06:00:29.213Z,101104.30
2017-11-17T06:02:56.672Z,101110.79
2017-11-17T06:05:24.202Z,101112.92
2017-11-17T06:07:56.644Z,101109.58
2017-11-17T06:10:24.133Z,101114.69
2017-11-17T06:12:51.594Z,101108.96
2017-11-17T06:15:19.073Z,101113.52
2017-11-17T06:17:46.765Z,101120.02
2017-11-17T06:20:14.347Z,101119.45
2017-11-17T06:22:41.832Z,101128.34
2017-11-17T06:25:09.599Z,101133.79
2017-11-17T06:27:37.085Z,101134.75
2017-11-17T06:30:04.648Z,101138.11
2017-11-17T06:32:32.182Z,101135.69
2017-11-17T06:35:00.044Z,101145.19
2017-11-17T06:37:27.568Z,101143.38
2017-11-17T06:39:55.182Z,101140.80
2017-11-17T06:42:22.789Z,101141.28
2017-11-17T06:44:50.344Z,101146.30
2017-11-17T06:47:17.882Z,101145.16
2017-11-17T06:49:45.740Z,101146.73
2017-11-17T06:52:13.550Z,101147.61
2017-11-17T06:54:41.029Z,101157.23
2017-11-17T06:57:10.727Z,101162.92
2017-11-17T06:59:38.304Z,101162.22
2017-11-17T07:02:05.787Z,101168.69
2017-11-17T07:04:33.295Z,101172.95
2017-11-17T07:07:00.902Z,101174.80
2017-11-17T07:09:28.443Z,101173.13
2017-11-17T07:11:55.992Z,101177.70
2017-11-17T07:14:23.542Z,101183.39
2017-11-17T07:16:51.095Z,101187.02
2017-11-17T07:19:38.357Z,101185.34
2017-11-17T07:22:05.969Z,101187.29
2017-11-17T07:24:33.486Z,101190.41
2017-11-17T07:27:01.018Z,101186.69
2017-11-17T07:29:28.555Z,101193.83
2017-11-17T07:31:56.067Z,101193.53
2017-11-17T07:34:23.593Z,101193.06
2017-11-17T07:36:51.170Z,101208.22
2017-11-17T07:39:24.321Z,101212.78
2017-11-17T07:41:52.264Z,101205.02
2017-11-17T07:44:19.860Z,101212.03
2017-11-17T07:46:47.402Z,101215.19
2017-11-17T07:49:20.566Z,101211.93
2017-11-17T07:51:48.054Z,101208.29
2017-11-17T07:54:15.666Z,101220.58
2017-11-17T07:56:43.184Z,101216.56
2017-11-17T07:59:10.707Z,101216.86
2017-11-17T08:01:38.266Z,101215.61
2017-11-17T08:04:06.047Z,101223.03
2017-11-17T08:06:33.863Z,101229.24
2017-11-17T08:09:01.391Z,101225.87
2017-11-17T08:11:28.999Z,101230.63
2017-11-17T08:13:56.541Z,101230.91
2017-11-17T08:16:24.050Z,101231.30
2017-11-17T08:19:15.233Z,101236.06
2017-11-17T08:21:42.904Z,101240.03
2017-11-17T08:24:11.362Z,101244.79
2017-11-17T08:26:38.968Z,101240.32
2017-11-17T08:29:06.607Z,101243.86
2017-11-17T08:31:34.374Z,101249.53
2017-11-17T08:34:01.951Z,101249.14
2017-11-17T08:36:29.457Z,101254.86
2017-11-17T08:41:50.153Z,101257.27
2017-11-17T08:44:17.767Z,101259.36
2017-11-17T08:46:45.363Z,101262.17
2017-11-17T08:49:13.024Z,101264.23
2017-11-17T08:51:40.589Z,101265.52
2017-11-17T08:54:08.247Z,101261.78
2017-11-17T08:56:35.827Z,101266.21
2017-11-17T08:59:04.401Z,101266.64
2017-11-17T09:01:32.739Z,101268.83
2017-11-17T09:04:00.329Z,101275.14
2017-11-17T09:06:31.518Z,101272.42
2017-11-17T09:08:59.027Z,101271.23
2017-11-17T09:11:26.562Z,101270.39
2017-11-17T09:13:54.047Z,101273.70
2017-11-17T09:16:22.696Z,101282.09
2017-11-17T09:19:00.028Z,101284.16
2017-11-17T09:21:28.497Z,101294.50
2017-11-17T09:23:57.077Z,101292.94
2017-11-17T09:26:24.583Z,101294.72
2017-11-17T09:28:57.123Z,101296.34
2017-11-17T09:31:24.698Z,101293.44
2017-11-17T09:33:52.952Z,101294.73
2017-11-17T09:36:21.959Z,101292.20
2017-11-17T09:38:49.605Z,101295.81
2017-11-17T09:41:17.188Z,101299.42
2017-11-17T09:43:44.730Z,101298.44
2017-11-17T09:46:12.303Z,101306.70
2017-11-17T09:48:39.787Z,101306.78
2017-11-17T09:51:07.360Z,101306.03
2017-11-17T09:53:34.942Z,101307.92
2017-11-17T09:56:02.557Z,101306.78
2017-11-17T09:58:30.368Z,101307.05
2017-11-17T10:00:59.602Z,101308.45
2017-11-17T10:03:27.267Z,101312.55
2017-11-17T10:05:54.811Z,101301.66
2017-11-17T10:08:22.371Z,101292.50
2017-11-17T10:10:54.321Z,101300.08
2017-11-17T10:13:21.876Z,101302.35
2017-11-17T10:15:49.629Z,101302.19
2017-11-17T10:18:17.207Z,101305.38
2017-11-17T10:20:44.753Z,101299.52
2017-11-17T10:23:12.583Z,101299.21
2017-11-17T10:25:40.212Z,101302.81
2017-11-17T10:28:07.886Z,101302.66
2017-11-17T10:30:35.392Z,101296.31
2017-11-17T10:33:04.169Z,101296.72
2017-11-17T10:35:32.075Z,101297.16
2017-11-17T10:37:59.683Z,101295.14
2017-11-17T10:40:27.364Z,101299.93
2017-11-17T10:42:54.862Z,101300.72
2017-11-17T10:45:22.510Z,101299.86
2017-11-17T10:47:50.083Z,101301.76
2017-11-17T10:50:17.891Z,101302.69
2017-11-17T10:52:45.668Z,101295.36
2017-11-17T10:55:13.267Z,101304.66
2017-11-17T10:57:40.834Z,101301.23
2017-11-17T11:00:09.301Z,101305.07
2017-11-17T11:02:37.782Z,101302.36
2017-11-17T11:05:06.119Z,101307.70
2017-11-17T11:07:47.908Z,101302.72
2017-11-17T11:10:15.507Z,101300.73
2017-11-17T11:12:43.128Z,101299.50
2017-11-17T11:15:12.085Z,101293.97
2017-11-17T11:17:39.638Z,101299.38
2017-11-17T11:20:07.143Z,101296.13
2017-11-17T11:22:34.743Z,101296.84
2017-11-17T11:25:02.369Z,101298.12
2017-11-17T11:27:29.914Z,101298.02
2017-11-17T11:29:57.485Z,101295.75
2017-11-17T11:32:25.682Z,101306.34
2017-11-17T11:34:55.689Z,101308.77
2017-11-17T11:37:24.024Z,101309.47
2017-11-17T11:39:51.635Z,101307.26
2017-11-17T11:42:19.492Z,101310.59
2017-11-17T11:44:48.567Z,101309.46
2017-11-17T11:47:16.286Z,101309.66
2017-11-17T11:49:43.918Z,101298.13
2017-11-17T11:52:12.915Z,101296.31
2017-11-17T11:54:40.627Z,101296.09
2017-11-17T11:57:08.152Z,101301.92
2017-11-17T11:59:35.708Z,101308.85
2017-11-17T12:02:03.299Z,101302.16
2017-11-17T12:04:30.858Z,101304.25
2017-11-17T12:06:58.569Z,101303.02
2017-11-17T12:12:11.448Z,101303.63
2017-11-17T12:14:38.984Z,101296.98
2017-11-17T12:17:06.625Z,101309.17
2017-11-17T12:19:34.110Z,101310.67
2017-11-17T12:22:01.598Z,101299.68
2017-11-17T12:24:29.222Z,101307.02
2017-11-17T12:26:56.763Z,101309.03
2017-11-17T12:29:24.254Z,101303.72
2017-11-17T12:31:51.916Z,101307.30
2017-11-17T12:34:19.552Z,101306.52
2017-11-17T12:36:47.210Z,101303.61
2017-11-17T12:39:14.774Z,101307.50
2017-11-17T12:41:42.374Z,101297.00
2017-11-17T12:44:09.921Z,101294.74
2017-11-17T12:46:37.484Z,101294.40
2017-11-17T12:49:05.062Z,101297.23
2017-11-17T12:51:32.606Z,101290.89
2017-11-17T12:54:00.462Z,101285.67
2017-11-17T12:56:28.961Z,101276.48
2017-11-17T12:58:56.456Z,101284.50
2017-11-17T13:01:23.986Z,101281.20
2017-11-17T13:03:51.456Z,101281.73
2017-11-17T13:06:18.981Z,101282.72
2017-11-17T13:08:46.591Z,101283.34
2017-11-17T13:11:14.163Z,101289.44
2017-11-17T13:13:41.675Z,101288.63
2017-11-17T13:16:09.314Z,101286.42
2017-11-17T13:18:42.207Z,101289.84
2017-11-17T13:21:16.751Z,101287.52
2017-11-17T13:23:44.270Z,101286.78
2017-11-17T13:26:11.797Z,101287.14
2017-11-17T13:28:39.301Z,101285.71
2017-11-17T13:31:06.833Z,101283.14
2017-11-17T13:33:34.389Z,101281.66
2017-11-17T13:36:01.946Z,101287.35
2017-11-17T13:38:29.421Z,101283.95
2017-11-17T13:40:56.925Z,101284.80
2017-11-17T13:43:24.505Z,101291.33
2017-11-17T13:45:52.006Z,101285.81
2017-11-17T13:48:19.556Z,101295.29
2017-11-17T13:50:47.083Z,101288.95
2017-11-17T13:53:14.694Z,101289.16
2017-11-17T13:55:42.265Z,101284.70
2017-11-17T13:58:09.795Z,101293.68
2017-11-17T14:00:37.424Z,101287.15
2017-11-17T14:03:04.916Z,101288.89
2017-11-17T14:05:32.432Z,101291.25
2017-11-17T14:07:59.942Z,101289.64
2017-11-17T14:10:27.512Z,101289.64
2017-11-17T14:12:55.116Z,101286.80
2017-11-17T14:15:22.886Z,101293.81
2017-11-17T14:17:50.399Z,101293.91
2017-11-17T14:20:18.036Z,101287.18
2017-11-17T14:22:45.570Z,101286.70
2017-11-17T14:25:13.055Z,101293.73
2017-11-17T14:27:46.152Z,101288.49
2017-11-17T14:30:14.031Z,101294.80
2017-11-17T14:32:41.815Z,101287.76
2017-11-17T14:35:09.733Z,101288.89
2017-11-17T14:37:38.909Z,101292.00
2017-11-17T14:40:07.341Z,101296.61
2017-11-17T14:42:36.032Z,101298.27
2017-11-17T14:45:07.244Z,101303.53
2017-11-17T14:47:35.024Z,101300.02
2017-11-17T14:52:35.152Z,101294.52
2017-11-17T14:55:02.937Z,101301.14
2017-11-17T15:00:32.813Z,101297.80
2017-11-17T15:03:00.623Z,101290.31
2017-11-17T15:05:28.615Z,101296.64
2017-11-17T15:07:56.240Z,101291.39
2017-11-17T15:10:23.890Z,101293.05
2017-11-17T15:12:51.567Z,101291.81
2017-11-17T15:15:21.032Z,101292.34
2017-11-17T15:17:48.659Z,101298.55
2017-11-17T15:20:16.355Z,101296.23
2017-11-17T15:22:44.058Z,101291.65
2017-11-17T15:25:11.615Z,101293.18
2017-11-17T15:27:43.261Z,101291.44
2017-11-17T15:30:10.990Z,101289.73
2017-11-17T15:32:39.436Z,101287.59
2017-11-17T15:35:07.029Z,101289.33
2017-11-17T15:37:34.867Z,101292.51
2017-11-17T15:40:02.372Z,101293.88
2017-11-17T15:42:30.080Z,101290.61
2017-11-17T15:44:57.671Z,101293.09
2017-11-17T15:47:25.201Z,101289.99
2017-11-17T15:49:52.811Z,101287.42
2017-11-17T15:52:20.395Z,101287.63
2017-11-17T15:54:48.315Z,101289.95
2017-11-17T15:57:15.849Z,101288.53
2017-11-17T15:59:43.421Z,101291.30
2017-11-17T16:02:10.961Z,101282.66
2017-11-17T16:04:38.470Z,101286.70
2017-11-17T16:07:07.078Z,101288.27
2017-11-17T16:09:34.660Z,101287.86
2017-11-17T16:12:02.242Z,101282.11
2017-11-17T16:14:29.807Z,101287.77
2017-11-17T16:16:57.343Z,101292.44
2017-11-17T16:19:25.189Z,101289.98
2017-11-17T16:21:55.685Z,101286.14
2017-11-17T16:24:23.270Z,101282.53
2017-11-17T16:26:53.108Z,101281.91
2017-11-17T16:29:22.251Z,101276.28
2017-11-17T16:31:50.517Z,101281.03
2017-11-17T16:34:18.112Z,101285.13
2017-11-17T16:36:45.767Z,101280.64
2017-11-17T16:39:13.292Z,101275.19
2017-11-17T16:41:40.896Z,101278.74
2017-11-17T16:44:08.516Z,101279.64
2017-11-17T16:46:36.141Z,101274.27
2017-11-17T16:49:17.997Z,101276.75
2017-11-17T16:51:45.564Z,101279.97
2017-11-17T16:54:13.232Z,101273.30
2017-11-17T16:56:41.051Z,101268.55
2017-11-17T16:59:22.874Z,101269.15
2017-11-17T17:01:51.335Z,101262.20
2017-11-17T17:04:19.236Z,101260.87
2017-11-17T17:06:47.707Z,101263.81
2017-11-17T17:09:38.966Z,101263.97
2017-11-17T17:12:06.713Z,101272.22
2017-11-17T17:14:34.717Z,101262.91
2017-11-17T17:17:03.385Z,101264.81
2017-11-17T17:19:31.175Z,101262.79
2017-11-17T17:21:58.968Z,101262.74
2017-11-17T17:24:26.670Z,101261.80
2017-11-17T17:26:54.633Z,101262.20
2017-11-17T17:29:22.232Z,101259.41
2017-11-17T17:31:49.849Z,101264.23
2017-11-17T17:34:17.582Z,101260.58
2017-11-17T17:36:45.136Z,101261.48
2017-11-17T17:39:17.858Z,101267.41
2017-11-17T17:41:45.468Z,101267.81
2017-11-17T17:44:17.935Z,101264.95
2017-11-17T17:46:45.963Z,101264.89
2017-11-17T17:49:14.422Z,101268.63
2017-11-17T17:51:42.244Z,101265.02
2017-11-17T17:54:10.014Z,101259.02
2017-11-17T17:56:38.556Z,101265.77
2017-11-17T17:59:15.825Z,101266.86
2017-11-17T18:01:43.477Z,101261.94
2017-11-17T18:04:11.341Z,101272.03
2017-11-17T18:06:39.417Z,101267.69
2017-11-17T18:09:16.741Z,101266.92
2017-11-17T18:11:44.280Z,101271.77
2017-11-17T18:14:11.928Z,101266.98
2017-11-17T18:16:39.558Z,101256.48
2017-11-17T18:19:07.160Z,101261.27
2017-11-17T18:21:34.804Z,101259.48
2017-11-17T18:24:02.393Z,101270.83
2017-11-17T18:26:29.915Z,101265.84
2017-11-17T18:28:57.431Z,101258.72
2017-11-17T18:31:25.810Z,101257.13
2017-11-17T18:33:53.500Z,101262.80
2017-11-17T18:36:21.292Z,101259.42
2017-11-17T18:38:48.966Z,101262.73
2017-11-17T18:41:17.187Z,101270.22
2017-11-17T18:43:45.623Z,101261.65
2017-11-17T18:46:13.163Z,101256.31
2017-11-17T18:48:40.715Z,101253.97
2017-11-17T18:51:08.404Z,101255.76
2017-11-17T18:53:35.966Z,101254.32
2017-11-17T18:56:03.567Z,101254.94
2017-11-17T18:58:45.514Z,101255.84
2017-11-17T19:01:12.990Z,101255.84
2017-11-17T19:03:40.631Z,101250.80
2017-11-17T19:06:08.301Z,101250.02
2017-11-17T19:08:35.894Z,101253.27
2017-11-17T19:11:03.536Z,101255.84
2017-11-17T19:13:31.014Z,101252.83
2017-11-17T19:15:58.570Z,101258.46
2017-11-17T19:18:26.107Z,101257.46
2017-11-17T19:20:53.930Z,101256.44
2017-11-17T19:23:21.508Z,101257.23
2017-11-17T19:25:49.045Z,101255.84
2017-11-17T19:28:21.946Z,101256.61
2017-11-17T19:30:49.924Z,101258.16
2017-11-17T19:33:17.442Z,101255.91
2017-11-17T19:35:44.994Z,101264.23
2017-11-17T19:38:12.538Z,101254.35
2017-11-17T19:40:40.011Z,101265.91
2017-11-17T19:43:07.576Z,101265.73
2017-11-17T19:45:35.193Z,101253.97
2017-11-17T19:48:12.358Z,101252.12
2017-11-17T19:50:40.165Z,101253.49
2017-11-17T19:53:07.989Z,101251.99
2017-11-17T19:55:35.931Z,101263.75
2017-11-17T19:58:17.768Z,101260.20
2017-11-17T20:00:45.373Z,101263.92
2017-11-17T20:03:13.115Z,101254.87
2017-11-17T20:05:40.693Z,101257.34
2017-11-17T20:08:08.785Z,101253.84
2017-11-17T20:10:36.385Z,101252.77
2017-11-17T20:13:03.939Z,101254.15
2017-11-17T20:15:31.592Z,101266.64
2017-11-17T20:17:59.101Z,101263.77
2017-11-17T20:20:27.832Z,101260.45
2017-11-17T20:22:55.469Z,101259.91
2017-11-17T20:25:24.162Z,101254.86
2017-11-17T20:27:51.804Z,101253.48
2017-11-17T20:30:19.410Z,101254.50
2017-11-17T20:32:48.748Z,101253.97
2017-11-17T20:35:16.298Z,101241.84
2017-11-17T20:37:53.911Z,101243.37
2017-11-17T20:40:21.488Z,101244.81
2017-11-17T20:42:49.053Z,101244.25
2017-11-17T20:45:17.173Z,101231.44
2017-11-17T20:47:44.769Z,101237.95
2017-11-17T20:50:12.739Z,101240.12
2017-11-17T20:52:40.380Z,101234.38
2017-11-17T20:55:08.762Z,101227.22
2017-11-17T20:57:36.282Z,101233.94
2017-11-17T21:00:04.003Z,101224.52
2017-11-17T21:02:32.056Z,101228.92
2017-11-17T21:05:00.389Z,101227.22
2017-11-17T21:07:27.969Z,101231.06
2017-11-17T21:09:56.699Z,101232.38
2017-11-17T21:12:24.260Z,101230.88
2017-11-17T21:14:51.777Z,101226.44
2017-11-17T21:17:20.307Z,101229.49
2017-11-17T21:20:07.122Z,101217.27
2017-11-17T21:22:34.675Z,101223.58
2017-11-17T21:25:02.304Z,101226.22
2017-11-17T21:27:29.842Z,101223.44
2017-11-17T21:29:57.434Z,101220.56
2017-11-17T21:32:25.225Z,101223.13
2017-11-17T21:34:52.866Z,101226.37
2017-11-17T21:37:20.440Z,101220.08
2017-11-17T21:39:48.900Z,101221.62
2017-11-17T21:42:16.524Z,101222.84
2017-11-17T21:44:44.393Z,101221.28
2017-11-17T21:47:12.036Z,101220.81
2017-11-17T21:49:39.657Z,101214.50
2017-11-17T21:52:08.195Z,101217.73
2017-11-17T21:54:35.730Z,101217.84
2017-11-17T21:57:03.824Z,101213.66
2017-11-17T21:59:31.660Z,101217.48
2017-11-17T22:02:00.928Z,101209.98
2017-11-17T22:04:28.593Z,101199.20
2017-11-17T22:06:56.249Z,101189.63
2017-11-17T22:09:24.074Z,101192.84
2017-11-17T22:11:51.611Z,101189.16
2017-11-17T22:14:19.203Z,101181.30
2017-11-17T22:16:46.865Z,101188.42
2017-11-17T22:19:14.450Z,101180.69
2017-11-17T22:21:41.953Z,101178.78
2017-11-17T22:24:09.995Z,101178.52
2017-11-17T22:26:37.845Z,101167.55
2017-11-17T22:29:07.058Z,101164.78
2017-11-17T22:31:35.021Z,101167.60
2017-11-17T22:34:03.153Z,101168.02
2017-11-17T22:36:30.642Z,101166.98
2017-11-17T22:38:58.224Z,101167.42
2017-11-17T22:41:25.761Z,101169.52
2017-11-17T22:43:53.237Z,101161.31
2017-11-17T22:46:21.612Z,101158.73
2017-11-17T22:48:49.163Z,101164.62
2017-11-17T22:51:16.681Z,101164.27
2017-11-17T22:53:45.427Z,101149.64
2017-11-17T22:56:13.921Z,101154.01
2017-11-17T22:58:48.916Z,101149.41
2017-11-17T23:01:17.659Z,101140.23
2017-11-17T23:03:47.115Z,101147.23
2017-11-17T23:06:15.061Z,101139.73
2017-11-17T23:08:56.863Z,101125.58
2017-11-17T23:11:24.690Z,101120.33
2017-11-17T23:13:54.085Z,101120.63
2017-11-17T23:16:23.750Z,101113.97
2017-11-17T23:19:10.603Z,101107.91
2017-11-17T23:21:38.118Z,101105.39
2017-11-17T23:24:06.711Z,101099.30
2017-11-17T23:26:34.518Z,101095.10
2017-11-17T23:29:02.212Z,101098.73
2017-11-17T23:31:29.715Z,101089.27
2017-11-17T23:33:57.341Z,101081.80
2017-11-17T23:36:24.859Z,101091.73
2017-11-17T23:38:52.514Z,101086.98
2017-11-17T23:41:20.452Z,101088.34
2017-11-17T23:43:48.007Z,101092.58
2017-11-17T23:46:15.507Z,101088.63
2017-11-17T23:48:43.129Z,101081.66
2017-11-17T23:51:10.719Z,101073.52
2017-11-17T23:53:38.388Z,101085.02
2017-11-17T23:56:05.992Z,101085.20
2017-11-17T23:58:33.543Z,101085.88
